createdAt,value
2022-10-26T00:08:16.720Z,87.20
2022-10-26T00:18:17.024Z,79.77
2022-10-26T00:28:17.036Z,76.10
2022-10-26T00:38:17.368Z,76.81
2022-10-26T00:48:17.386Z,79.99
2022-10-26T00:58:17.711Z,79.32
2022-10-26T01:08:17.724Z,75.86
2022-10-26T01:18:18.084Z,73.43
2022-10-26T01:28:18.116Z,82.31
2022-10-26T01:38:18.403Z,86.22
2022-10-26T01:48:18.440Z,75.46
2022-10-26T01:58:18.749Z,69.74
2022-10-26T02:08:18.796Z,71.53
2022-10-26T02:18:19.112Z,83.64
2022-10-26T02:28:19.129Z,87.29
2022-10-26T02:38:19.443Z,76.45
2022-10-26T02:48:19.462Z,70.42
2022-10-26T02:58:19.813Z,65.70
2022-10-26T03:08:19.854Z,69.41
2022-10-26T03:18:20.156Z,67.76
2022-10-26T03:28:20.186Z,71.57
2022-10-26T03:38:20.512Z,79.79
2022-10-26T03:48:20.524Z,83.46
2022-10-26T03:58:20.897Z,86.41
2022-10-26T04:08:20.955Z,88.54
2022-10-26T04:18:21.310Z,90.78
2022-10-26T04:28:21.343Z,92.82
2022-10-26T04:38:21.652Z,92.91
2022-10-26T04:48:21.713Z,93.26
2022-10-26T04:58:22.000Z,91.64
2022-10-26T05:08:22.029Z,86.83
2022-10-26T05:18:22.348Z,85.86
2022-10-26T05:28:22.387Z,84.54
2022-10-26T05:38:22.720Z,82.17
2022-10-26T05:48:22.756Z,80.26
2022-10-26T05:58:23.047Z,80.66
2022-10-26T06:08:23.082Z,83.38
2022-10-26T06:18:24.424Z,85.86
2022-10-26T06:28:23.468Z,85.46
2022-10-26T06:38:24.796Z,84.60
2022-10-26T06:48:23.809Z,81.88
2022-10-26T06:58:25.243Z,81.54
2022-10-26T07:08:24.289Z,79.78
2022-10-26T07:18:26.002Z,79.03
2022-10-26T07:28:24.650Z,79.74
2022-10-26T07:38:25.951Z,78.28
2022-10-26T07:48:24.979Z,81.60
2022-10-26T07:58:25.252Z,81.40
2022-10-26T08:08:25.307Z,79.00
2022-10-26T08:18:25.608Z,79.60
2022-10-26T08:28:25.644Z,80.05
2022-10-26T08:38:25.971Z,78.35
2022-10-26T08:48:25.987Z,78.11
2022-10-26T08:58:26.311Z,78.72
2022-10-26T09:08:26.336Z,76.97
2022-10-26T09:18:26.661Z,78.45
2022-10-26T09:28:26.679Z,77.84
2022-10-26T09:38:27.019Z,76.72
2022-10-26T09:48:27.086Z,75.07
2022-10-26T09:58:27.357Z,74.40
2022-10-26T10:08:27.381Z,75.27
2022-10-26T10:18:27.839Z,75.57
2022-10-26T10:28:27.933Z,75.13
2022-10-26T10:38:28.059Z,72.98
2022-10-26T10:48:28.095Z,72.24
2022-10-26T10:58:28.408Z,73.05
2022-10-26T11:08:28.532Z,70.73
2022-10-26T11:18:28.781Z,71.57
2022-10-26T11:28:29.011Z,71.47
2022-10-26T11:38:39.275Z,70.69
2022-10-26T11:48:30.381Z,68.75
2022-10-26T11:58:29.662Z,68.04
2022-10-26T12:08:29.718Z,66.14
2022-10-26T12:18:50.280Z,66.77
2022-10-26T12:28:31.208Z,65.24
2022-10-26T12:38:33.025Z,63.90
2022-10-26T12:48:39.166Z,65.00
2022-10-26T12:58:31.584Z,64.28
2022-10-26T13:08:30.887Z,62.14
2022-10-26T13:18:30.923Z,61.08
2022-10-26T13:28:31.240Z,61.88
2022-10-26T13:38:31.256Z,63.37
2022-10-26T13:48:31.588Z,63.64
2022-10-26T13:58:31.617Z,61.44
2022-10-26T14:08:31.932Z,61.08
2022-10-26T14:18:31.957Z,63.04
2022-10-26T14:28:32.284Z,63.20
2022-10-26T14:38:32.318Z,64.81
2022-10-26T14:48:32.657Z,64.54
2022-10-26T14:58:32.709Z,66.98
2022-10-26T15:08:45.228Z,67.58
2022-10-26T15:18:34.131Z,70.76
2022-10-26T15:28:33.435Z,73.04
2022-10-26T15:38:33.477Z,75.43
2022-10-26T15:48:33.994Z,77.08
2022-10-26T15:58:33.818Z,78.42
2022-10-26T16:08:34.306Z,79.81
2022-10-26T16:18:34.174Z,81.20
2022-10-26T16:28:34.710Z,82.35
2022-10-26T16:38:34.625Z,82.89
2022-10-26T16:48:35.221Z,82.93
2022-10-26T16:58:37.554Z,85.03
2022-10-26T17:08:35.699Z,85.44
2022-10-26T17:18:35.777Z,84.53
2022-10-26T17:28:36.740Z,85.62
2022-10-26T17:38:36.298Z,83.31
2022-10-26T17:48:36.667Z,81.45
2022-10-26T17:58:36.717Z,83.04
2022-10-26T18:08:37.766Z,83.69
2022-10-26T18:18:37.138Z,83.59
2022-10-26T18:28:37.367Z,83.39
2022-10-26T18:38:37.586Z,85.39
2022-10-26T18:48:37.807Z,84.69
2022-10-26T18:58:37.994Z,84.58
2022-10-26T19:08:38.026Z,84.63
2022-10-26T19:18:38.383Z,85.27
2022-10-26T19:28:38.605Z,86.94
2022-10-26T19:38:38.803Z,83.40
2022-10-26T19:48:39.073Z,79.34
2022-10-26T19:58:39.083Z,79.27
2022-10-26T20:08:51.962Z,79.58
2022-10-26T20:18:42.510Z,80.12
2022-10-26T20:28:40.480Z,82.03
2022-10-26T20:38:39.750Z,82.23
2022-10-26T20:48:43.833Z,82.03
2022-10-26T20:58:39.959Z,81.01
2022-10-26T21:08:39.898Z,81.52
2022-10-26T21:18:40.127Z,80.71
2022-10-26T21:28:40.450Z,80.60
2022-10-26T21:38:40.486Z,81.35
2022-10-26T21:48:40.793Z,81.45
2022-10-26T21:58:40.815Z,80.50
2022-10-26T22:08:41.144Z,81.25
2022-10-26T22:18:41.173Z,80.64
2022-10-26T22:28:42.739Z,80.64
2022-10-26T22:38:41.552Z,80.98
2022-10-26T22:48:41.856Z,79.42
2022-10-26T22:58:41.913Z,79.42
2022-10-26T23:08:42.211Z,77.45
2022-10-26T23:18:42.238Z,79.25
2022-10-26T23:28:42.539Z,80.78
2022-10-26T23:38:42.568Z,79.56
2022-10-26T23:48:42.895Z,79.16
2022-10-26T23:58:42.934Z,80.24
